createdAt,value
2023-03-25T00:01:45.640Z,100340.88
2023-03-25T00:04:17.313Z,100335.02
2023-03-25T00:06:47.076Z,100328.76
2023-03-25T00:09:16.408Z,100325.59
2023-03-25T00:11:46.049Z,100323.02
2023-03-25T00:14:16.708Z,100316.32
2023-03-25T00:16:49.351Z,100312.42
2023-03-25T00:19:21.003Z,100306.55
2023-03-25T00:21:51.673Z,100302.29
2023-03-25T00:24:21.385Z,100306.43
2023-03-25T00:26:53.968Z,100306.29
2023-03-25T00:29:23.063Z,100308.65
2023-03-25T00:31:52.310Z,100309.83
2023-03-25T00:34:22.329Z,100302.11
2023-03-25T00:36:52.505Z,100298.89
2023-03-25T00:39:21.738Z,100294.48
2023-03-25T00:41:55.163Z,100296.23
2023-03-25T00:44:24.429Z,100297.02
2023-03-25T00:46:53.887Z,100292.54
2023-03-25T00:49:24.652Z,100292.02
2023-03-25T00:51:54.177Z,100288.64
2023-03-25T00:54:23.647Z,100292.66
2023-03-25T00:56:54.539Z,100290.36
2023-03-25T00:59:24.684Z,100291.25
2023-03-25T01:01:59.160Z,100287.20
2023-03-25T01:04:45.025Z,100286.89
2023-03-25T01:07:15.625Z,100282.03
2023-03-25T01:09:46.980Z,100284.16
2023-03-25T01:12:19.313Z,100279.39
2023-03-25T01:14:48.851Z,100286.46
2023-03-25T01:17:18.428Z,100289.33
2023-03-25T01:19:48.134Z,100290.30
2023-03-25T01:22:17.399Z,100283.34
2023-03-25T01:24:47.691Z,100276.70
2023-03-25T01:27:18.309Z,100270.55
2023-03-25T01:29:48.367Z,100266.35
2023-03-25T01:32:18.588Z,100262.88
2023-03-25T01:34:48.211Z,100268.17
2023-03-25T01:37:20.168Z,100266.98
2023-03-25T01:39:49.568Z,100264.27
2023-03-25T01:42:18.881Z,100262.95
2023-03-25T01:45:23.798Z,100261.05
2023-03-25T01:48:02.370Z,100252.53
2023-03-25T01:50:32.878Z,100247.67
2023-03-25T01:53:05.361Z,100241.40
2023-03-25T01:55:39.683Z,100240.20
2023-03-25T01:58:13.420Z,100236.20
2023-03-25T02:00:47.247Z,100233.27
2023-03-25T02:03:20.578Z,100234.93
2023-03-25T02:05:57.294Z,100226.19
2023-03-25T02:08:36.380Z,100228.06
2023-03-25T02:11:07.378Z,100227.05
2023-03-25T02:13:40.134Z,100219.89
2023-03-25T02:16:25.933Z,100223.06
2023-03-25T02:19:07.646Z,100219.63
2023-03-25T02:22:11.357Z,100219.00
2023-03-25T02:25:08.333Z,100215.39
2023-03-25T02:28:00.941Z,100211.17
2023-03-25T02:31:07.520Z,100208.17
2023-03-25T02:34:18.418Z,100192.39
2023-03-25T02:37:46.658Z,100181.91
2023-03-25T02:40:22.630Z,100182.98
2023-03-25T02:42:57.597Z,100179.66
2023-03-25T02:45:31.924Z,100173.20
2023-03-25T02:48:06.140Z,100170.10
2023-03-25T02:50:38.768Z,100167.67
2023-03-25T02:53:14.380Z,100166.48
2023-03-25T02:55:48.315Z,100167.09
2023-03-25T02:58:20.972Z,100170.70
2023-03-25T03:00:52.624Z,100169.15
2023-03-25T03:03:23.098Z,100170.23
2023-03-25T03:05:56.347Z,100165.66
2023-03-25T03:08:38.075Z,100163.19
2023-03-25T03:11:15.379Z,100166.49
2023-03-25T03:14:07.228Z,100165.83
2023-03-25T03:16:44.758Z,100168.80
2023-03-25T03:19:31.023Z,100164.63
2023-03-25T03:22:08.165Z,100166.94
2023-03-25T03:24:53.629Z,100168.63
2023-03-25T03:27:33.425Z,100172.55
2023-03-25T03:30:11.094Z,100175.66
2023-03-25T03:32:52.595Z,100182.61
2023-03-25T03:35:28.821Z,100178.35
2023-03-25T03:38:02.052Z,100182.30
2023-03-25T03:40:33.771Z,100184.23
2023-03-25T03:43:08.309Z,100189.17
2023-03-25T03:45:47.396Z,100189.39
2023-03-25T03:48:23.154Z,100188.83
2023-03-25T03:50:56.798Z,100185.75
2023-03-25T03:53:33.854Z,100189.14
2023-03-25T03:56:08.178Z,100184.14
2023-03-25T03:58:42.335Z,100176.70
2023-03-25T04:01:17.903Z,100175.23
2023-03-25T04:03:54.250Z,100170.52
2023-03-25T04:06:34.854Z,100171.04
2023-03-25T04:09:18.101Z,100167.26
2023-03-25T04:11:54.151Z,100167.16
2023-03-25T04:14:24.243Z,100171.50
2023-03-25T04:16:55.777Z,100175.02
2023-03-25T04:19:25.269Z,100175.52
2023-03-25T04:21:55.306Z,100171.48
2023-03-25T04:24:26.326Z,100175.14
2023-03-25T04:26:57.090Z,100176.85
2023-03-25T04:29:26.643Z,100178.11
2023-03-25T04:31:57.268Z,100177.77
2023-03-25T04:34:27.068Z,100178.28
2023-03-25T04:36:58.536Z,100182.96
2023-03-25T04:39:29.219Z,100189.91
2023-03-25T04:42:01.302Z,100190.98
2023-03-25T04:44:33.114Z,100188.09
2023-03-25T04:47:03.358Z,100190.05
2023-03-25T04:49:33.054Z,100192.50
2023-03-25T04:52:03.892Z,100187.05
2023-03-25T04:54:33.121Z,100186.48
2023-03-25T04:57:02.391Z,100182.93
2023-03-25T04:59:31.612Z,100183.78
2023-03-25T05:02:02.467Z,100187.56
2023-03-25T05:04:32.653Z,100193.47
2023-03-25T05:07:02.212Z,100189.77
2023-03-25T05:09:35.153Z,100196.73
2023-03-25T05:12:04.696Z,100196.19
2023-03-25T05:14:33.796Z,100194.70
2023-03-25T05:17:03.112Z,100196.52
2023-03-25T05:19:35.785Z,100200.25
2023-03-25T05:22:05.300Z,100197.84
2023-03-25T05:24:34.645Z,100197.88
2023-03-25T05:27:04.072Z,100193.87
2023-03-25T05:29:36.159Z,100191.81
2023-03-25T05:32:06.482Z,100192.48
2023-03-25T05:34:36.848Z,100187.85
2023-03-25T05:37:09.639Z,100191.77
2023-03-25T05:39:39.647Z,100191.33
2023-03-25T05:42:10.491Z,100190.42
2023-03-25T05:44:46.374Z,100191.20
2023-03-25T05:47:15.783Z,100194.55
2023-03-25T05:49:45.756Z,100197.80
2023-03-25T05:52:17.297Z,100192.97
2023-03-25T05:54:50.030Z,100199.04
2023-03-25T05:57:19.229Z,100191.81
2023-03-25T05:59:48.455Z,100189.02
2023-03-25T06:02:18.402Z,100193.23
2023-03-25T06:04:50.767Z,100194.27
2023-03-25T06:07:20.164Z,100196.55
2023-03-25T06:09:54.218Z,100195.66
2023-03-25T06:12:27.007Z,100194.77
2023-03-25T06:14:59.016Z,100194.30
2023-03-25T06:17:29.316Z,100199.30
2023-03-25T06:20:00.915Z,100198.14
2023-03-25T06:22:30.370Z,100197.67
2023-03-25T06:25:03.186Z,100195.58
2023-03-25T06:27:34.250Z,100193.89
2023-03-25T06:30:05.275Z,100189.61
2023-03-25T06:32:34.794Z,100188.59
2023-03-25T06:35:04.495Z,100189.33
2023-03-25T06:37:37.436Z,100193.38
2023-03-25T06:40:09.451Z,100193.38
2023-03-25T06:42:38.896Z,100192.35
2023-03-25T06:45:10.308Z,100188.85
2023-03-25T06:47:40.443Z,100184.29
2023-03-25T06:50:11.682Z,100184.77
2023-03-25T06:52:41.035Z,100185.84
2023-03-25T06:55:11.166Z,100184.60
2023-03-25T06:57:41.823Z,100181.45
2023-03-25T07:00:12.775Z,100174.39
2023-03-25T07:02:42.687Z,100173.21
2023-03-25T07:05:12.394Z,100171.19
2023-03-25T07:07:42.650Z,100171.65
2023-03-25T07:10:16.523Z,100170.42
2023-03-25T07:12:45.595Z,100169.33
2023-03-25T07:15:15.240Z,100165.95
2023-03-25T07:17:48.688Z,100169.92
2023-03-25T07:20:18.527Z,100171.48
2023-03-25T07:22:48.605Z,100172.33
2023-03-25T07:25:18.528Z,100171.59
2023-03-25T07:27:48.833Z,100169.77
2023-03-25T07:30:18.971Z,100165.89
2023-03-25T07:32:55.266Z,100166.57
2023-03-25T07:35:25.510Z,100169.33
2023-03-25T07:37:57.335Z,100169.00
2023-03-25T07:40:28.183Z,100166.86
2023-03-25T07:42:57.620Z,100166.56
2023-03-25T07:45:28.246Z,100166.30
2023-03-25T07:47:57.947Z,100162.67
2023-03-25T07:50:27.202Z,100166.48
2023-03-25T07:52:57.752Z,100160.39
2023-03-25T07:55:27.933Z,100162.40
2023-03-25T07:58:02.372Z,100161.44
2023-03-25T08:00:32.321Z,100159.92
2023-03-25T08:03:02.166Z,100154.61
2023-03-25T08:05:34.280Z,100155.19
2023-03-25T08:08:07.359Z,100156.46
2023-03-25T08:10:37.079Z,100156.89
2023-03-25T08:13:08.648Z,100159.22
2023-03-25T08:15:41.729Z,100155.34
2023-03-25T08:28:26.692Z,100151.42
2023-03-25T08:29:21.144Z,100129.70
2023-03-25T08:31:54.665Z,100127.64
2023-03-25T08:34:42.691Z,100130.82
2023-03-25T08:37:15.398Z,100124.83
2023-03-25T08:39:50.801Z,100117.60
2023-03-25T08:42:21.588Z,100110.53
2023-03-25T08:44:51.332Z,100107.35
2023-03-25T08:47:20.631Z,100100.71
2023-03-25T08:49:50.504Z,100094.82
2023-03-25T08:52:19.884Z,100096.52
2023-03-25T08:54:51.926Z,100098.91
2023-03-25T08:57:22.368Z,100101.04
2023-03-25T08:59:57.748Z,100099.27
2023-03-25T09:02:27.389Z,100100.04
2023-03-25T09:04:57.357Z,100103.27
2023-03-25T09:07:30.095Z,100099.61
2023-03-25T09:09:59.544Z,100096.24
2023-03-25T09:12:29.129Z,100093.88
2023-03-25T09:14:58.550Z,100089.02
2023-03-25T09:17:28.197Z,100092.49
2023-03-25T09:19:58.966Z,100088.80
2023-03-25T09:22:29.358Z,100085.80
2023-03-25T09:25:01.812Z,100084.55
2023-03-25T09:27:31.594Z,100081.44
2023-03-25T09:30:01.276Z,100080.48
2023-03-25T09:32:30.443Z,100076.85
2023-03-25T09:34:59.653Z,100078.70
2023-03-25T09:37:29.364Z,100071.29
2023-03-25T09:39:58.709Z,100069.67
2023-03-25T09:42:49.124Z,100060.98
2023-03-25T09:45:29.248Z,100057.23
2023-03-25T09:48:10.027Z,100051.85
2023-03-25T09:50:43.242Z,100050.38
2023-03-25T09:53:23.757Z,100052.24
2023-03-25T09:55:55.623Z,100049.46
2023-03-25T09:58:34.828Z,100051.71
2023-03-25T10:01:20.195Z,100053.55
2023-03-25T10:04:15.042Z,100051.36
2023-03-25T10:06:53.259Z,100051.23
2023-03-25T10:09:43.800Z,100050.52
2023-03-25T10:12:31.137Z,100045.34
2023-03-25T10:15:13.095Z,100039.46
2023-03-25T10:17:56.704Z,100040.56
2023-03-25T10:20:41.930Z,100044.44
2023-03-25T10:23:22.356Z,100040.59
2023-03-25T10:26:01.583Z,100034.38
2023-03-25T10:28:38.778Z,100042.19
2023-03-25T10:31:23.080Z,100030.86
2023-03-25T10:34:15.050Z,100018.98
2023-03-25T10:36:50.783Z,100014.52
2023-03-25T10:39:22.450Z,100017.19
2023-03-25T10:41:58.208Z,100003.25
2023-03-25T10:44:30.594Z,99990.77
2023-03-25T10:47:06.910Z,99986.15
2023-03-25T10:49:37.307Z,99989.81
2023-03-25T10:52:06.825Z,99975.43
2023-03-25T10:54:39.462Z,99969.17
2023-03-25T10:57:11.088Z,99964.67
2023-03-25T10:59:46.624Z,99967.13
2023-03-25T11:02:20.227Z,99961.08
2023-03-25T11:04:54.194Z,99959.35
2023-03-25T11:07:29.844Z,99957.27
2023-03-25T11:10:18.054Z,99949.00
2023-03-25T11:12:49.470Z,99948.85
2023-03-25T11:15:23.629Z,99939.32
2023-03-25T11:18:04.608Z,99945.05
2023-03-25T11:20:39.805Z,99934.20
2023-03-25T11:23:17.987Z,99932.42
2023-03-25T11:25:47.400Z,99927.77
2023-03-25T11:28:22.407Z,99924.06
2023-03-25T11:31:12.568Z,99910.60
2023-03-25T11:33:43.865Z,99909.20
2023-03-25T11:36:35.592Z,99900.23
2023-03-25T11:39:18.469Z,99898.16
2023-03-25T11:41:48.872Z,99900.77
2023-03-25T11:44:31.674Z,99895.94
2023-03-25T11:47:23.499Z,99889.23
2023-03-25T11:49:54.316Z,99890.88
2023-03-25T11:52:26.506Z,99883.11
2023-03-25T11:54:58.230Z,99876.38
2023-03-25T11:57:36.529Z,99869.82
2023-03-25T12:00:30.741Z,99876.20
2023-03-25T12:03:05.797Z,99880.50
2023-03-25T12:05:36.210Z,99881.36
2023-03-25T12:08:17.297Z,99874.66
2023-03-25T12:10:58.752Z,99870.77
2023-03-25T12:13:45.789Z,99869.52
2023-03-25T12:16:28.697Z,99867.93
2023-03-25T12:19:08.358Z,99862.30
2023-03-25T12:21:43.778Z,99843.64
2023-03-25T12:24:25.736Z,99844.88
2023-03-25T12:26:59.062Z,99848.71
2023-03-25T12:29:32.254Z,99839.58
2023-03-25T12:32:11.498Z,99828.98
2023-03-25T12:34:49.249Z,99830.50
2023-03-25T12:37:24.407Z,99837.16
2023-03-25T12:40:02.076Z,99826.83
2023-03-25T12:42:41.800Z,99816.73
2023-03-25T12:45:23.953Z,99818.30
2023-03-25T12:47:55.600Z,99823.66
2023-03-25T12:50:36.575Z,99822.00
2023-03-25T12:53:12.254Z,99812.77
2023-03-25T12:55:52.072Z,99800.98
2023-03-25T12:58:36.475Z,99812.24
2023-03-25T13:01:10.545Z,99802.05
2023-03-25T13:03:43.891Z,99793.88
2023-03-25T13:06:17.124Z,99788.23
2023-03-25T13:08:47.548Z,99786.81
2023-03-25T13:11:18.783Z,99785.73
2023-03-25T13:13:49.441Z,99781.92
2023-03-25T13:16:19.265Z,99774.16
2023-03-25T13:18:50.699Z,99771.11
2023-03-25T13:21:21.236Z,99774.23
2023-03-25T13:23:52.815Z,99771.02
2023-03-25T13:26:22.812Z,99758.33
2023-03-25T13:28:55.766Z,99760.80
2023-03-25T13:31:27.206Z,99760.48
2023-03-25T13:34:02.459Z,99765.70
2023-03-25T13:36:37.206Z,99751.84
2023-03-25T13:39:13.052Z,99755.80
2023-03-25T13:41:46.264Z,99774.02
2023-03-25T13:44:21.169Z,99762.66
2023-03-25T13:46:54.998Z,99759.94
2023-03-25T13:49:26.907Z,99750.39
2023-03-25T13:51:59.710Z,99751.92
2023-03-25T13:54:30.972Z,99743.15
2023-03-25T13:57:26.488Z,99739.64
2023-03-25T14:00:11.571Z,99729.44
2023-03-25T14:02:46.239Z,99719.15
2023-03-25T14:05:31.902Z,99712.48
2023-03-25T14:08:14.361Z,99720.08
2023-03-25T14:10:53.899Z,99716.64
2023-03-25T14:13:26.879Z,99707.89
2023-03-25T14:15:59.229Z,99711.09
2023-03-25T14:18:31.426Z,99709.50
2023-03-25T14:21:19.803Z,99709.42
2023-03-25T14:23:48.896Z,99702.80
2023-03-25T14:26:19.018Z,99703.21
2023-03-25T14:28:47.773Z,99701.12
2023-03-25T14:31:32.387Z,99693.20
2023-03-25T14:34:18.164Z,99708.09
2023-03-25T14:37:02.882Z,99690.95
2023-03-25T14:39:42.338Z,99702.39
2023-03-25T14:42:24.409Z,99693.10
2023-03-25T14:44:54.137Z,99686.92
2023-03-25T14:47:30.758Z,99690.27
2023-03-25T14:50:07.401Z,99697.65
2023-03-25T14:52:40.452Z,99709.95
2023-03-25T14:55:14.947Z,99711.45
2023-03-25T14:57:45.536Z,99706.14
2023-03-25T15:00:21.811Z,99702.89
2023-03-25T15:02:52.780Z,99710.68
2023-03-25T15:05:26.146Z,99708.71
2023-03-25T15:07:58.856Z,99705.66
2023-03-25T15:10:30.388Z,99707.34
2023-03-25T15:13:04.603Z,99698.13
2023-03-25T15:15:52.252Z,99695.17
2023-03-25T15:18:34.352Z,99700.23
2023-03-25T15:21:04.149Z,99698.58
2023-03-25T15:23:36.398Z,99697.69
2023-03-25T15:26:05.778Z,99698.89
2023-03-25T15:28:45.823Z,99705.91
2023-03-25T15:31:20.909Z,99701.76
2023-03-25T15:33:59.766Z,99701.71
2023-03-25T15:36:39.009Z,99703.11
2023-03-25T15:39:19.265Z,99701.72
2023-03-25T15:42:00.114Z,99704.35
2023-03-25T15:44:53.416Z,99703.36
2023-03-25T15:47:32.574Z,99698.79
2023-03-25T15:50:17.876Z,99699.48
2023-03-25T15:53:09.781Z,99700.86
2023-03-25T15:55:39.788Z,99703.13
2023-03-25T15:58:13.363Z,99707.64
2023-03-25T16:00:46.548Z,99710.02
2023-03-25T16:03:16.230Z,99708.80
2023-03-25T16:05:47.453Z,99704.22
2023-03-25T16:08:18.666Z,99706.55
2023-03-25T16:10:46.778Z,99710.42
2023-03-25T16:13:16.159Z,99716.80
2023-03-25T16:15:45.012Z,99715.02
2023-03-25T16:18:15.845Z,99712.41
2023-03-25T16:20:48.442Z,99713.02
2023-03-25T16:23:18.342Z,99711.83
2023-03-25T16:25:48.343Z,99716.63
2023-03-25T16:28:19.115Z,99708.23
2023-03-25T16:30:50.797Z,99710.67
2023-03-25T16:33:21.153Z,99709.54
2023-03-25T16:35:51.012Z,99710.40
2023-03-25T16:38:21.090Z,99704.91
2023-03-25T16:41:00.931Z,99703.67
2023-03-25T16:43:31.155Z,99706.28
2023-03-25T16:46:03.688Z,99704.83
2023-03-25T16:48:33.632Z,99707.71
2023-03-25T16:51:05.730Z,99709.27
2023-03-25T16:53:34.617Z,99708.39
2023-03-25T16:56:20.996Z,99712.13
2023-03-25T16:58:55.931Z,99712.37
2023-03-25T17:01:26.205Z,99710.73
2023-03-25T17:04:05.446Z,99715.11
2023-03-25T17:06:39.617Z,99712.73
2023-03-25T17:09:11.349Z,99711.57
2023-03-25T17:11:40.275Z,99708.89
2023-03-25T17:14:14.481Z,99709.41
2023-03-25T17:16:43.428Z,99708.69
2023-03-25T17:19:16.630Z,99710.93
2023-03-25T17:21:59.846Z,99709.69
2023-03-25T17:24:27.899Z,99710.21
2023-03-25T17:26:57.256Z,99705.99
2023-03-25T17:29:25.395Z,99707.76
2023-03-25T17:31:57.700Z,99712.55
2023-03-25T17:34:27.183Z,99716.91
2023-03-25T17:37:03.321Z,99715.45
2023-03-25T17:39:32.847Z,99720.48
2023-03-25T17:42:02.334Z,99719.52
2023-03-25T17:44:33.200Z,99718.41
2023-03-25T17:47:01.931Z,99715.70
2023-03-25T17:49:30.430Z,99713.05
2023-03-25T17:51:58.638Z,99720.34
2023-03-25T17:54:27.095Z,99714.35
2023-03-25T17:56:55.470Z,99709.96
2023-03-25T17:59:24.897Z,99711.89
2023-03-25T18:01:54.479Z,99712.69
2023-03-25T18:04:22.691Z,99715.30
2023-03-25T18:06:51.736Z,99710.08
2023-03-25T18:09:23.372Z,99710.58
2023-03-25T18:11:53.234Z,99710.13
2023-03-25T18:14:22.049Z,99716.27
2023-03-25T18:16:50.344Z,99724.53
2023-03-25T18:19:19.837Z,99721.48
2023-03-25T18:21:50.617Z,99728.11
2023-03-25T18:24:19.447Z,99722.81
2023-03-25T18:26:48.528Z,99720.84
2023-03-25T18:29:21.030Z,99724.95
2023-03-25T18:31:50.888Z,99721.52
2023-03-25T18:34:23.190Z,99727.42
2023-03-25T18:37:01.498Z,99722.95
2023-03-25T18:39:31.127Z,99721.98
2023-03-25T18:41:59.206Z,99723.31
2023-03-25T18:44:30.438Z,99720.45
2023-03-25T18:46:58.920Z,99718.52
2023-03-25T18:49:27.331Z,99718.30
2023-03-25T18:51:56.812Z,99720.71
2023-03-25T18:54:24.967Z,99713.73
2023-03-25T18:56:53.703Z,99711.00
2023-03-25T18:59:22.153Z,99717.31
2023-03-25T19:01:51.175Z,99716.88
2023-03-25T19:04:19.118Z,99715.55
2023-03-25T19:06:47.800Z,99712.31
2023-03-25T19:09:18.355Z,99712.86
2023-03-25T19:11:48.456Z,99714.39
2023-03-25T19:14:16.749Z,99710.67
2023-03-25T19:16:57.334Z,99711.55
2023-03-25T19:19:31.185Z,99711.55
2023-03-25T19:21:59.488Z,99711.45
2023-03-25T19:24:27.622Z,99714.67
2023-03-25T19:26:56.431Z,99717.20
2023-03-25T19:29:24.702Z,99718.70
2023-03-25T19:31:52.992Z,99715.75
2023-03-25T19:34:22.521Z,99715.80
2023-03-25T19:36:53.120Z,99718.48
2023-03-25T19:39:22.798Z,99716.24
2023-03-25T19:41:53.893Z,99717.70
2023-03-25T19:44:22.215Z,99712.29
2023-03-25T19:46:50.404Z,99704.05
2023-03-25T19:49:28.926Z,99703.90
2023-03-25T19:52:04.895Z,99706.24
2023-03-25T19:54:32.942Z,99707.27
2023-03-25T19:57:01.182Z,99713.80
2023-03-25T19:59:29.702Z,99710.66
2023-03-25T20:01:59.202Z,99710.89
2023-03-25T20:04:27.864Z,99707.19
2023-03-25T20:06:56.357Z,99710.70
2023-03-25T20:09:26.067Z,99713.16
2023-03-25T20:11:54.387Z,99716.29
2023-03-25T20:14:22.595Z,99717.09
2023-03-25T20:16:51.740Z,99724.13
2023-03-25T20:19:22.054Z,99722.66
2023-03-25T20:21:50.221Z,99722.94
2023-03-25T20:24:18.400Z,99721.00
2023-03-25T20:26:46.567Z,99721.86
2023-03-25T20:29:17.208Z,99719.35
2023-03-25T20:31:48.688Z,99722.00
2023-03-25T20:34:16.826Z,99720.08
2023-03-25T20:36:46.324Z,99725.09
2023-03-25T20:39:15.072Z,99728.18
2023-03-25T20:41:43.242Z,99725.68
2023-03-25T20:44:13.570Z,99726.28
2023-03-25T20:46:45.733Z,99727.71
2023-03-25T20:49:15.038Z,99728.94
2023-03-25T20:51:43.518Z,99729.55
2023-03-25T20:54:14.499Z,99729.60
2023-03-25T20:56:45.469Z,99727.05
2023-03-25T20:59:14.504Z,99731.39
2023-03-25T21:01:44.209Z,99727.98
2023-03-25T21:04:14.255Z,99731.28
2023-03-25T21:06:44.112Z,99731.38
2023-03-25T21:09:13.161Z,99732.53
2023-03-25T21:11:42.690Z,99730.11
2023-03-25T21:14:12.040Z,99729.90
2023-03-25T21:16:41.070Z,99730.39
2023-03-25T21:19:09.402Z,99729.48
2023-03-25T21:21:38.393Z,99729.96
2023-03-25T21:24:07.370Z,99729.22
2023-03-25T21:26:35.509Z,99719.15
2023-03-25T21:29:03.775Z,99718.23
2023-03-25T21:31:31.878Z,99716.90
2023-03-25T21:34:00.128Z,99717.33
2023-03-25T21:36:29.209Z,99717.05
2023-03-25T21:38:58.269Z,99719.92
2023-03-25T21:41:26.808Z,99719.27
2023-03-25T21:43:55.320Z,99719.79
2023-03-25T21:46:26.554Z,99715.08
2023-03-25T21:48:57.776Z,99711.91
2023-03-25T21:51:26.810Z,99711.89
2023-03-25T21:53:57.787Z,99718.25
2023-03-25T21:56:27.609Z,99722.55
2023-03-25T21:58:56.028Z,99727.07
2023-03-25T22:01:27.810Z,99727.02
2023-03-25T22:03:57.496Z,99726.15
2023-03-25T22:06:26.718Z,99736.23
2023-03-25T22:08:56.450Z,99738.20
2023-03-25T22:11:25.966Z,99742.11
2023-03-25T22:13:54.031Z,99745.13
2023-03-25T22:16:22.420Z,99747.35
2023-03-25T22:18:51.249Z,99753.61
2023-03-25T22:21:20.614Z,99765.67
2023-03-25T22:23:50.527Z,99757.59
2023-03-25T22:26:18.860Z,99754.97
2023-03-25T22:28:50.148Z,99765.30
2023-03-25T22:31:19.494Z,99762.91
2023-03-25T22:33:48.540Z,99758.86
2023-03-25T22:36:16.755Z,99760.05
2023-03-25T22:38:45.833Z,99761.37
2023-03-25T22:44:53.518Z,99763.30
2023-03-25T22:47:22.336Z,99762.16
2023-03-25T22:49:51.504Z,99765.02
2023-03-25T22:52:19.713Z,99761.55
2023-03-25T22:54:48.002Z,99767.90
2023-03-25T22:57:17.399Z,99767.09
2023-03-25T22:59:45.762Z,99763.58
2023-03-25T23:02:16.366Z,99767.09
2023-03-25T23:04:44.899Z,99768.89
2023-03-25T23:07:14.425Z,99768.70
2023-03-25T23:09:44.400Z,99769.66
2023-03-25T23:12:13.938Z,99771.63
2023-03-25T23:14:43.843Z,99781.48
2023-03-25T23:17:18.495Z,99790.08
2023-03-25T23:19:47.020Z,99795.16
2023-03-25T23:22:16.255Z,99795.02
2023-03-25T23:24:44.502Z,99802.29
2023-03-25T23:27:13.615Z,99797.16
2023-03-25T23:29:42.471Z,99795.44
2023-03-25T23:32:15.341Z,99797.02
2023-03-25T23:34:46.689Z,99798.88
2023-03-25T23:37:14.915Z,99811.33
2023-03-25T23:39:46.258Z,99812.02
2023-03-25T23:42:16.390Z,99817.77
2023-03-25T23:44:48.086Z,99818.34
2023-03-25T23:47:16.688Z,99825.94
2023-03-25T23:49:44.705Z,99827.39
2023-03-25T23:52:14.047Z,99834.97
2023-03-25T23:54:43.355Z,99837.59
2023-03-25T23:57:12.403Z,99838.66
2023-03-25T23:59:40.742Z,99846.09
